Union, New Hampshire
Current Conditions -  °F | °C
As of 9:58 AM on Friday 28 Nov 2014 (Local Time) from KDAW Reporting Station
Light Snow Light Snow  
Wind Chill: 22°   Ceiling: 2700
Heat Index: 27°   Visibility: 2mi
Dew Point: 22°   Wind: 5mph
Humidity: 81%   Direction: 310°NW
Pressure: 30.05"   Gusts: NA
Location:  43.49°N, 71.02°W
Report Text: KDAW 281458Z AUTO 31004KT 2SM -SN BKN027 OVC035 M03/M06 A3005 RMK AO2 P0000 T10281056
Loading
Personal Weather Stations






























Interactive Weather Map New forecast layout! Learn more

10-Day Weather Forecast

Advertisements
Track Severe Weather on mobile